Sandestin, Florida
Current Conditions -  °F | °C
As of 5:55 AM on Monday 24 Nov 2014 (Local Time) from KVPS Reporting Station
Broken Clouds Broken Clouds  
Wind Chill: 70°   Ceiling: 800
Heat Index: 70°   Visibility: 10mi
Dew Point: 69°   Wind: 5mph
Humidity: 96%   Direction: 230°SW
Pressure: 29.82"   Gusts: NA
Location:  30.3738°N, 86.3602°W
Report Text: KVPS 241155Z 23004KT 10SM BKN008 BKN050 21/21 A2982 RMK AO2A SLP098 60005 70075 T02120206 10212 20189 53017 $
Loading
Personal Weather Stations






























Interactive Weather Map New forecast layout! Learn more

10-Day Weather Forecast

Advertisements
Track Severe Weather on mobile